Time,TemperatureF,DewpointF,PressureIn,WindDirection,WindDirectionDegrees,WindSpeedMPH,WindSpeedGustMPH,Humidity,HourlyPrecipIn,Conditions,Clouds,dailyrainin,SolarRadiationWatts/m^2,SoftwareType,DateUTC
2012-06-30 00:24:00,72.0,45.0,-100.00,SSW,213,7.0,13.0,38,0.00,,,0.05,733.000000,,2012-06-30 00:24:00,
2012-06-30 00:34:00,72.0,45.0,-100.00,SSW,213,7.0,13.0,38,0.00,,,0.05,733.000000,,2012-06-30 00:34:00,
2012-06-30 00:43:00,72.0,45.0,-100.00,SSW,213,7.0,13.0,38,0.00,,,0.05,733.000000,,2012-06-30 00:43:00,
2012-06-30 00:53:00,72.0,45.0,-100.00,SSW,213,7.0,13.0,38,0.00,,,0.05,733.000000,,2012-06-30 00:53:00,
2012-06-30 01:24:00,74.0,47.0,-100.00,West,272,6.0,11.0,39,0.00,,,0.05,524.000000,,2012-06-30 01:24:00,
2012-06-30 01:34:00,74.0,47.0,-100.00,West,272,6.0,11.0,39,0.00,,,0.05,524.000000,,2012-06-30 01:34:00,
2012-06-30 01:43:00,74.0,47.0,-100.00,West,272,6.0,11.0,39,0.00,,,0.05,524.000000,,2012-06-30 01:43:00,
2012-06-30 01:53:00,74.0,47.0,-100.00,West,272,6.0,11.0,39,0.00,,,0.05,524.000000,,2012-06-30 01:53:00,
2012-06-30 02:23:00,68.0,51.0,-100.00,WNW,282,10.0,15.0,54,0.00,,,0.05,265.000000,,2012-06-30 02:23:00,
2012-06-30 02:34:00,68.0,51.0,-100.00,WNW,282,10.0,15.0,54,0.00,,,0.05,265.000000,,2012-06-30 02:34:00,
2012-06-30 02:43:00,68.0,51.0,-100.00,WNW,282,10.0,15.0,54,0.00,,,0.05,265.000000,,2012-06-30 02:43:00,
2012-06-30 02:53:00,68.0,51.0,-100.00,WNW,282,10.0,15.0,54,0.00,,,0.05,265.000000,,2012-06-30 02:53:00,
2012-06-30 03:23:00,67.0,52.0,-100.00,NW,304,8.0,14.0,59,0.00,,,0.05,252.000000,,2012-06-30 03:23:00,
2012-06-30 03:34:00,67.0,52.0,-100.00,NW,304,8.0,14.0,59,0.00,,,0.05,252.000000,,2012-06-30 03:34:00,
2012-06-30 03:43:00,67.0,52.0,-100.00,NW,304,8.0,14.0,59,0.00,,,0.05,252.000000,,2012-06-30 03:43:00,
2012-06-30 03:53:00,67.0,52.0,-100.00,NW,304,8.0,14.0,59,0.00,,,0.05,252.000000,,2012-06-30 03:53:00,
2012-06-30 04:27:00,61.0,51.0,-100.00,West,269,5.0,9.0,70,0.00,,,0.05,22.000000,,2012-06-30 04:27:00,
2012-06-30 04:35:00,61.0,51.0,-100.00,West,269,5.0,9.0,70,0.00,,,0.05,22.000000,,2012-06-30 04:35:00,
2012-06-30 04:43:00,61.0,51.0,-100.00,West,269,5.0,9.0,70,0.00,,,0.05,22.000000,,2012-06-30 04:43:00,
2012-06-30 04:52:00,61.0,51.0,-100.00,West,269,5.0,9.0,70,0.00,,,0.05,22.000000,,2012-06-30 04:52:00,
2012-06-30 05:23:00,58.0,50.0,-100.00,SSW,206,2.0,6.0,75,0.00,,,0.05,1.000000,,2012-06-30 05:23:00,
2012-06-30 05:33:00,58.0,50.0,-100.00,SSW,206,2.0,6.0,75,0.00,,,0.05,1.000000,,2012-06-30 05:33:00,
2012-06-30 07:26:00,54.0,50.0,-100.00,NE,52,0.0,4.0,86,0.00,,,0.05,1.000000,,2012-06-30 07:26:00,
2012-06-30 07:38:00,54.0,50.0,-100.00,NE,52,0.0,4.0,86,0.00,,,0.05,1.000000,,2012-06-30 07:38:00,
2012-06-30 07:46:00,54.0,50.0,-100.00,NE,52,0.0,4.0,86,0.00,,,0.05,1.000000,,2012-06-30 07:46:00,
2012-06-30 07:54:00,54.0,50.0,-100.00,NE,52,0.0,4.0,86,0.00,,,0.05,1.000000,,2012-06-30 07:54:00,
2012-06-30 08:23:00,51.0,49.0,-100.00,ENE,75,3.0,5.0,92,0.00,,,0.05,1.000000,,2012-06-30 08:23:00,
2012-06-30 08:34:00,51.0,49.0,-100.00,ENE,75,3.0,5.0,92,0.00,,,0.05,1.000000,,2012-06-30 08:34:00,
2012-06-30 08:43:00,51.0,49.0,-100.00,ENE,75,3.0,5.0,92,0.00,,,0.05,1.000000,,2012-06-30 08:43:00,
2012-06-30 08:52:00,51.0,49.0,-100.00,ENE,75,3.0,5.0,92,0.00,,,0.05,1.000000,,2012-06-30 08:52:00,
2012-06-30 09:23:00,50.0,48.0,-100.00,East,83,4.0,5.0,92,0.00,,,0.05,1.000000,,2012-06-30 09:23:00,
2012-06-30 09:34:00,50.0,48.0,-100.00,East,83,4.0,5.0,92,0.00,,,0.05,1.000000,,2012-06-30 09:34:00,
2012-06-30 12:25:00,51.0,49.0,-100.00,East,82,2.0,5.0,93,0.00,,,0.01,1.000000,,2012-06-30 12:25:00,
2012-06-30 12:35:00,51.0,49.0,-100.00,East,82,2.0,5.0,93,0.00,,,0.01,1.000000,,2012-06-30 12:35:00,
2012-06-30 12:45:00,51.0,49.0,-100.00,East,82,2.0,5.0,93,0.00,,,0.01,1.000000,,2012-06-30 12:45:00,
2012-06-30 12:54:00,51.0,49.0,-100.00,East,82,2.0,5.0,93,0.00,,,0.01,1.000000,,2012-06-30 12:54:00,
2012-06-30 13:24:00,51.0,49.0,-100.00,NE,52,4.0,5.0,94,0.00,,,0.00,4.000000,,2012-06-30 13:24:00,
2012-06-30 13:35:00,51.0,49.0,-100.00,NE,52,4.0,5.0,94,0.00,,,0.00,4.000000,,2012-06-30 13:35:00,
2012-06-30 13:45:00,51.0,49.0,-100.00,NE,52,4.0,5.0,94,0.00,,,0.00,4.000000,,2012-06-30 13:45:00,
2012-06-30 13:54:00,51.0,49.0,-100.00,NE,52,4.0,5.0,94,0.00,,,0.00,4.000000,,2012-06-30 13:54:00,
2012-06-30 14:24:00,51.0,49.0,-100.00,ENE,69,4.0,5.0,92,0.00,,,0.00,31.000000,,2012-06-30 14:24:00,
2012-06-30 14:34:00,51.0,49.0,-100.00,ENE,69,4.0,5.0,92,0.00,,,0.00,31.000000,,2012-06-30 14:34:00,
2012-06-30 14:43:00,51.0,49.0,-100.00,ENE,69,4.0,5.0,92,0.00,,,0.00,31.000000,,2012-06-30 14:43:00,
2012-06-30 14:53:00,51.0,49.0,-100.00,ENE,69,4.0,5.0,92,0.00,,,0.00,31.000000,,2012-06-30 14:53:00,
2012-06-30 15:24:00,56.0,52.0,-100.00,ENE,58,4.0,7.0,86,0.00,,,0.00,154.000000,,2012-06-30 15:24:00,
2012-06-30 15:34:00,56.0,52.0,-100.00,ENE,58,4.0,7.0,86,0.00,,,0.00,154.000000,,2012-06-30 15:34:00,
2012-06-30 15:43:00,56.0,52.0,-100.00,ENE,58,4.0,7.0,86,0.00,,,0.00,154.000000,,2012-06-30 15:43:00,
2012-06-30 15:53:00,56.0,52.0,-100.00,ENE,58,4.0,7.0,86,0.00,,,0.00,154.000000,,2012-06-30 15:53:00,
2012-06-30 16:23:00,61.0,53.0,-100.00,SE,127,2.0,5.0,75,0.00,,,0.00,250.000000,,2012-06-30 16:23:00,
2012-06-30 17:24:00,65.0,53.0,-100.00,WSW,255,6.0,9.0,66,0.00,,,-99.99,579.000000,,2012-06-30 17:24:00,
2012-06-30 17:35:00,65.0,53.0,-100.00,WSW,255,6.0,9.0,66,0.00,,,-99.99,579.000000,,2012-06-30 17:35:00,
2012-06-30 17:45:00,65.0,53.0,-100.00,WSW,255,6.0,9.0,66,0.00,,,-99.99,579.000000,,2012-06-30 17:45:00,
2012-06-30 17:53:00,65.0,53.0,-100.00,WSW,255,6.0,9.0,66,0.00,,,-99.99,579.000000,,2012-06-30 17:53:00,
2012-06-30 18:25:00,68.0,54.0,-100.00,SSW,206,6.0,9.0,60,0.00,,,0.00,602.000000,,2012-06-30 18:25:00,
2012-06-30 18:34:00,68.0,54.0,-100.00,SSW,206,6.0,9.0,60,0.00,,,0.00,602.000000,,2012-06-30 18:34:00,
2012-06-30 19:24:00,70.0,52.0,-100.00,SSW,203,7.0,14.0,53,0.00,,,0.00,852.000000,,2012-06-30 19:24:00,
2012-06-30 19:35:00,70.0,52.0,-100.00,SSW,203,7.0,14.0,53,0.00,,,0.00,852.000000,,2012-06-30 19:35:00,
2012-06-30 19:45:00,70.0,52.0,-100.00,SSW,203,7.0,14.0,53,0.00,,,0.00,852.000000,,2012-06-30 19:45:00,
2012-06-30 19:53:00,70.0,52.0,-100.00,SSW,203,7.0,14.0,53,0.00,,,0.00,852.000000,,2012-06-30 19:53:00,
2012-06-30 20:24:00,73.0,52.0,-100.00,South,183,8.0,14.0,47,0.00,,,0.00,981.000000,,2012-06-30 20:24:00,
2012-06-30 20:34:00,73.0,52.0,-100.00,South,183,8.0,14.0,47,0.00,,,0.00,981.000000,,2012-06-30 20:34:00,
2012-06-30 20:43:00,73.0,52.0,-100.00,South,183,8.0,14.0,47,0.00,,,0.00,981.000000,,2012-06-30 20:43:00,
2012-06-30 20:53:00,73.0,52.0,-100.00,South,183,8.0,14.0,47,0.00,,,0.00,981.000000,,2012-06-30 20:53:00,
2012-06-30 21:13:00,69.0,49.0,-100.00,WSW,258,12.0,20.0,49,0.00,,,0.00,729.000000,,2012-06-30 21:13:00,
2012-06-30 21:23:00,69.0,49.0,-100.00,WSW,258,12.0,20.0,49,0.00,,,0.00,729.000000,,2012-06-30 21:23:00,
2012-06-30 21:34:00,69.0,49.0,-100.00,WSW,258,12.0,20.0,49,0.00,,,0.00,729.000000,,2012-06-30 21:34:00,
2012-06-30 21:43:00,69.0,49.0,-100.00,WSW,258,12.0,20.0,49,0.00,,,0.00,729.000000,,2012-06-30 21:43:00,
2012-06-30 21:53:00,69.0,49.0,-100.00,WSW,258,12.0,20.0,49,0.00,,,0.00,729.000000,,2012-06-30 21:53:00,
2012-06-30 22:45:00,69.0,54.0,-100.00,NW,313,7.0,18.0,59,0.00,,,0.00,509.000000,,2012-06-30 22:45:00,
2012-06-30 22:54:00,69.0,54.0,-100.00,NW,313,7.0,18.0,59,0.00,,,0.00,509.000000,,2012-06-30 22:54:00,
2012-06-30 23:23:00,70.0,53.0,-100.00,NW,322,4.0,12.0,55,0.00,,,0.00,375.000000,,2012-06-30 23:23:00,
2012-06-30 23:34:00,70.0,53.0,-100.00,NW,322,4.0,12.0,55,0.00,,,0.00,375.000000,,2012-06-30 23:34:00,
2012-06-30 23:43:00,70.0,53.0,-100.00,NW,322,4.0,12.0,55,0.00,,,0.00,375.000000,,2012-06-30 23:43:00,
2012-06-30 23:52:00,70.0,53.0,-100.00,NW,322,4.0,12.0,55,0.00,,,0.00,375.000000,,2012-06-30 23:52:00,